Sunset Beach, NC

12:06 AM EDT on September 01, 2015 (GMT -0400)
Wyndfall At Sandpiper Bay | | Change Station
CLOSE
Current Station
Personal Weather Station
Location: Sunset Beach, NC
Elevation: 20 ft
Nearby Weather Stations

Elev 20 ft 33.92 °N, 78.50 °W | Updated 3 seconds ago

Mostly Cloudy
Mostly Cloudy
74.6 °F
Feels Like 72 °F
N
0.1
Wind Variable Wind from North
Gusts 1.2 mph

Today
High -- | Low -- °F
--% Chance of Precip.
Yesterday
High -- | Low -- °F
Precip. -- in
6:47 AM 7:40 PM
Waning Gibbous, 92% visible
Pressure 30.07 in
Visibility 0.2 miles
Clouds
Heat Index 72 °F
Dew Point 74 °F
Humidity 97%
Rainfall 0.00 in
Snow Depth Not available.
UV Not available.
Pollen 2.90 out of 12
Air Quality Not available.
Flu Activity Not available.
SPECI KCRE 010401Z AUTO 00000KT 1/4SM FG VV002 23/22 A3007 RMK AO1 T02330222
Pressure 30.07 in
Visibility 0.2 miles
Clouds
Heat Index 72 °F
Dew Point 74 °F
Humidity 97%
Rainfall 0.00 in
Snow Depth Not available.
UV Not available.
Pollen 2.90 out of 12
Air Quality Not available.
Flu Activity Not available.
SPECI KCRE 010401Z AUTO 00000KT 1/4SM FG VV002 23/22 A3007 RMK AO1 T02330222

10-Day Weather Forecast

×

Almanac

Astronomy

Sep. 01, 2015 Rise Set
Actual Time
Civil Twilight
Nautical Twilight
Astronomical Twilight
Moon
Length of Visible Light
Length of Day
Tomorrow will be .
, % of the Moon is Illuminated

Today's Extremes

State Highs State Lows

Community

WunderPhotos

Upload Photos

1,851,477 photos uploaded!

WunderBlogs® & News

Nearby

Air Quality

  Air Quality AQ Index Pollutant
Not available.

Snow Depth

Station Depth Elevation

Earthquake Activity

City Distance Mag. Time & Date
Minimum magnitude displayed is 2.5.

Coastal Water Temperatures

Place Temperature

Stations

Nearby Weather Stations

Station Location Temp. Windchill Dew Point Humidity Wind Precip. Elev Updated Type